sensor_id;sensor_type;location;lat;lon;timestamp;P1;durP1;ratioP1;P2;durP2;ratioP2
41643;SDS011;44236;48.098;11.582;2023-08-07T05:00:53;5.38;;;0.82;;
41643;SDS011;44236;48.098;11.582;2023-08-07T05:03:22;4.45;;;0.90;;
41643;SDS011;44236;48.098;11.582;2023-08-07T05:05:48;5.75;;;1.33;;
41643;SDS011;44236;48.098;11.582;2023-08-07T05:08:14;7.47;;;1.08;;
41643;SDS011;44236;48.098;11.582;2023-08-07T05:10:39;1.67;;;0.85;;
41643;SDS011;44236;48.098;11.582;2023-08-07T05:13:05;5.38;;;1.15;;
41643;SDS011;44236;48.098;11.582;2023-08-07T05:15:30;3.20;;;0.90;;
41643;SDS011;44236;48.098;11.582;2023-08-07T05:17:57;2.55;;;0.90;;
41643;SDS011;44236;48.098;11.582;2023-08-07T05:20:22;3.25;;;0.98;;
41643;SDS011;44236;48.098;11.582;2023-08-07T05:22:48;2.05;;;0.93;;
41643;SDS011;44236;48.098;11.582;2023-08-07T05:25:14;1.63;;;0.77;;
41643;SDS011;44236;48.098;11.582;2023-08-07T05:27:44;4.20;;;1.10;;
41643;SDS011;44236;48.098;11.582;2023-08-07T05:30:10;2.50;;;0.90;;
41643;SDS011;44236;48.098;11.582;2023-08-07T05:32:36;1.63;;;1.00;;
41643;SDS011;44236;48.098;11.582;2023-08-07T05:35:04;6.93;;;0.80;;
41643;SDS011;44236;48.098;11.582;2023-08-07T05:37:30;1.88;;;0.65;;
41643;SDS011;44236;48.098;11.582;2023-08-07T05:39:56;2.63;;;1.30;;
41643;SDS011;44236;48.098;11.582;2023-08-07T05:42:22;5.53;;;0.82;;
41643;SDS011;44236;48.098;11.582;2023-08-07T05:44:48;2.92;;;1.20;;
41643;SDS011;44236;48.098;11.582;2023-08-07T05:47:14;5.43;;;1.00;;
41643;SDS011;44236;48.098;11.582;2023-08-07T05:49:39;6.45;;;1.38;;
41643;SDS011;44236;48.098;11.582;2023-08-07T05:52:05;13.55;;;2.30;;
41643;SDS011;44236;48.098;11.582;2023-08-07T05:54:31;12.38;;;3.17;;
41643;SDS011;44236;48.098;11.582;2023-08-07T05:56:57;9.27;;;2.17;;
41643;SDS011;44236;48.098;11.582;2023-08-07T05:59:24;12.38;;;2.20;;
41643;SDS011;44236;48.098;11.582;2023-08-07T06:01:49;10.27;;;2.33;;
41643;SDS011;44236;48.098;11.582;2023-08-07T06:04:16;11.63;;;2.05;;
41643;SDS011;44236;48.098;11.582;2023-08-07T06:06:41;9.57;;;2.30;;
41643;SDS011;44236;48.098;11.582;2023-08-07T06:09:08;11.82;;;1.60;;
41643;SDS011;44236;48.098;11.582;2023-08-07T06:11:34;8.13;;;2.20;;
41643;SDS011;44236;48.098;11.582;2023-08-07T06:13:59;10.27;;;2.20;;
41643;SDS011;44236;48.098;11.582;2023-08-07T06:16:25;9.48;;;2.00;;
41643;SDS011;44236;48.098;11.582;2023-08-07T06:18:52;16.20;;;1.98;;
41643;SDS011;44236;48.098;11.582;2023-08-07T06:21:18;10.20;;;2.05;;
41643;SDS011;44236;48.098;11.582;2023-08-07T06:23:45;5.75;;;1.90;;
41643;SDS011;44236;48.098;11.582;2023-08-07T06:26:10;6.50;;;1.60;;
41643;SDS011;44236;48.098;11.582;2023-08-07T06:28:36;10.38;;;1.80;;
41643;SDS011;44236;48.098;11.582;2023-08-07T06:31:02;6.47;;;1.80;;
41643;SDS011;44236;48.098;11.582;2023-08-07T06:33:28;7.25;;;1.52;;
41643;SDS011;44236;48.098;11.582;2023-08-07T06:35:55;4.18;;;1.58;;
41643;SDS011;44236;48.098;11.582;2023-08-07T06:38:20;32.13;;;3.53;;
41643;SDS011;44236;48.098;11.582;2023-08-07T06:40:46;10.63;;;2.22;;
41643;SDS011;44236;48.098;11.582;2023-08-07T06:43:11;11.18;;;2.25;;
41643;SDS011;44236;48.098;11.582;2023-08-07T06:45:37;11.60;;;2.17;;
41643;SDS011;44236;48.098;11.582;2023-08-07T06:48:02;7.47;;;2.17;;
41643;SDS011;44236;48.098;11.582;2023-08-07T06:50:28;7.75;;;1.80;;
41643;SDS011;44236;48.098;11.582;2023-08-07T06:52:54;18.60;;;1.85;;
41643;SDS011;44236;48.098;11.582;2023-08-07T06:55:20;8.98;;;1.23;;
41643;SDS011;44236;48.098;11.582;2023-08-07T06:57:46;7.43;;;1.65;;
41643;SDS011;44236;48.098;11.582;2023-08-07T07:00:11;7.43;;;1.65;;
41643;SDS011;44236;48.098;11.582;2023-08-07T07:02:37;5.32;;;1.48;;
41643;SDS011;44236;48.098;11.582;2023-08-07T07:05:03;3.83;;;1.48;;
41643;SDS011;44236;48.098;11.582;2023-08-07T07:07:30;13.32;;;1.63;;
41643;SDS011;44236;48.098;11.582;2023-08-07T07:09:55;4.63;;;1.42;;
41643;SDS011;44236;48.098;11.582;2023-08-07T07:12:23;3.88;;;1.27;;
41643;SDS011;44236;48.098;11.582;2023-08-07T07:14:48;6.53;;;1.45;;
41643;SDS011;44236;48.098;11.582;2023-08-07T07:17:14;3.45;;;1.55;;
41643;SDS011;44236;48.098;11.582;2023-08-07T07:19:39;3.15;;;1.23;;
41643;SDS011;44236;48.098;11.582;2023-08-07T07:22:05;6.32;;;1.83;;
41643;SDS011;44236;48.098;11.582;2023-08-07T07:24:31;3.38;;;1.33;;
41643;SDS011;44236;48.098;11.582;2023-08-07T07:26:56;2.85;;;1.20;;
41643;SDS011;44236;48.098;11.582;2023-08-07T07:29:22;3.47;;;1.20;;
41643;SDS011;44236;48.098;11.582;2023-08-07T07:31:48;3.33;;;0.98;;
41643;SDS011;44236;48.098;11.582;2023-08-07T07:34:15;2.00;;;1.10;;
41643;SDS011;44236;48.098;11.582;2023-08-07T07:36:40;7.95;;;1.35;;
41643;SDS011;44236;48.098;11.582;2023-08-07T07:39:06;3.53;;;1.63;;
41643;SDS011;44236;48.098;11.582;2023-08-07T07:41:31;2.45;;;0.90;;
41643;SDS011;44236;48.098;11.582;2023-08-07T07:43:57;2.38;;;1.00;;
41643;SDS011;44236;48.098;11.582;2023-08-07T07:46:23;3.97;;;1.15;;
41643;SDS011;44236;48.098;11.582;2023-08-07T07:48:49;3.80;;;1.13;;
41643;SDS011;44236;48.098;11.582;2023-08-07T07:51:15;3.38;;;1.33;;
41643;SDS011;44236;48.098;11.582;2023-08-07T07:53:40;2.90;;;1.20;;
41643;SDS011;44236;48.098;11.582;2023-08-07T07:56:06;4.43;;;1.15;;
41643;SDS011;44236;48.098;11.582;2023-08-07T07:58:31;2.30;;;1.08;;
41643;SDS011;44236;48.098;11.582;2023-08-07T08:00:57;2.60;;;1.23;;
41643;SDS011;44236;48.098;11.582;2023-08-07T08:03:22;1.60;;;1.08;;
41643;SDS011;44236;48.098;11.582;2023-08-07T08:05:52;2.42;;;1.13;;
41643;SDS011;44236;48.098;11.582;2023-08-07T08:08:17;2.13;;;1.20;;
41643;SDS011;44236;48.098;11.582;2023-08-07T08:10:44;1.85;;;1.10;;
41643;SDS011;44236;48.098;11.582;2023-08-07T08:13:11;2.78;;;0.95;;
41643;SDS011;44236;48.098;11.582;2023-08-07T08:15:37;2.05;;;1.00;;
41643;SDS011;44236;48.098;11.582;2023-08-07T08:18:03;2.28;;;0.82;;
41643;SDS011;44236;48.098;11.582;2023-08-07T08:20:28;1.73;;;1.00;;
41643;SDS011;44236;48.098;11.582;2023-08-07T08:22:56;2.70;;;1.10;;
41643;SDS011;44236;48.098;11.582;2023-08-07T08:25:21;2.72;;;1.10;;
41643;SDS011;44236;48.098;11.582;2023-08-07T08:27:47;2.00;;;0.93;;
41643;SDS011;44236;48.098;11.582;2023-08-07T08:30:13;2.88;;;1.15;;
41643;SDS011;44236;48.098;11.582;2023-08-07T08:32:38;2.15;;;1.17;;
41643;SDS011;44236;48.098;11.582;2023-08-07T08:35:04;2.67;;;0.93;;
41643;SDS011;44236;48.098;11.582;2023-08-07T08:37:30;1.85;;;1.02;;
41643;SDS011;44236;48.098;11.582;2023-08-07T08:39:56;1.15;;;0.85;;
41643;SDS011;44236;48.098;11.582;2023-08-07T08:42:22;1.40;;;0.80;;
41643;SDS011;44236;48.098;11.582;2023-08-07T08:44:51;3.35;;;1.45;;
41643;SDS011;44236;48.098;11.582;2023-08-07T08:47:17;2.45;;;1.08;;
41643;SDS011;44236;48.098;11.582;2023-08-07T08:49:46;2.80;;;1.08;;
41643;SDS011;44236;48.098;11.582;2023-08-07T08:52:12;1.48;;;0.80;;
41643;SDS011;44236;48.098;11.582;2023-08-07T08:54:42;1.15;;;0.70;;
41643;SDS011;44236;48.098;11.582;2023-08-07T08:57:09;1.75;;;0.90;;
41643;SDS011;44236;48.098;11.582;2023-08-07T08:59:36;2.58;;;1.10;;
41643;SDS011;44236;48.098;11.582;2023-08-07T09:02:02;3.20;;;1.02;;
41643;SDS011;44236;48.098;11.582;2023-08-07T09:04:28;1.83;;;0.90;;
41643;SDS011;44236;48.098;11.582;2023-08-07T09:06:54;3.40;;;0.90;;
41643;SDS011;44236;48.098;11.582;2023-08-07T09:09:20;3.13;;;1.33;;
41643;SDS011;44236;48.098;11.582;2023-08-07T09:11:47;3.05;;;0.90;;
41643;SDS011;44236;48.098;11.582;2023-08-07T09:14:15;1.85;;;0.70;;
41643;SDS011;44236;48.098;11.582;2023-08-07T09:16:43;1.08;;;0.88;;
41643;SDS011;44236;48.098;11.582;2023-08-07T09:19:11;6.70;;;1.20;;
41643;SDS011;44236;48.098;11.582;2023-08-07T09:21:36;1.65;;;1.00;;
41643;SDS011;44236;48.098;11.582;2023-08-07T09:24:02;1.33;;;0.80;;
41643;SDS011;44236;48.098;11.582;2023-08-07T09:26:28;3.25;;;1.38;;
41643;SDS011;44236;48.098;11.582;2023-08-07T09:28:53;1.52;;;0.90;;
41643;SDS011;44236;48.098;11.582;2023-08-07T09:31:20;2.33;;;1.15;;
41643;SDS011;44236;48.098;11.582;2023-08-07T09:33:47;2.85;;;1.15;;
41643;SDS011;44236;48.098;11.582;2023-08-07T09:36:16;2.65;;;1.10;;
41643;SDS011;44236;48.098;11.582;2023-08-07T09:38:43;1.48;;;0.90;;
41643;SDS011;44236;48.098;11.582;2023-08-07T09:41:08;2.72;;;0.90;;
41643;SDS011;44236;48.098;11.582;2023-08-07T09:43:35;3.70;;;1.00;;
41643;SDS011;44236;48.098;11.582;2023-08-07T09:46:04;1.90;;;0.95;;
41643;SDS011;44236;48.098;11.582;2023-08-07T09:48:31;3.45;;;1.48;;
41643;SDS011;44236;48.098;11.582;2023-08-07T09:51:01;2.22;;;1.10;;
41643;SDS011;44236;48.098;11.582;2023-08-07T09:53:29;2.10;;;0.98;;
41643;SDS011;44236;48.098;11.582;2023-08-07T09:55:55;3.65;;;1.25;;
41643;SDS011;44236;48.098;11.582;2023-08-07T09:58:20;2.38;;;1.10;;
41643;SDS011;44236;48.098;11.582;2023-08-07T10:00:47;1.75;;;0.88;;
41643;SDS011;44236;48.098;11.582;2023-08-07T10:03:13;2.33;;;0.95;;
41643;SDS011;44236;48.098;11.582;2023-08-07T10:05:40;4.10;;;1.10;;
41643;SDS011;44236;48.098;11.582;2023-08-07T10:08:07;3.72;;;1.30;;
41643;SDS011;44236;48.098;11.582;2023-08-07T10:10:33;1.52;;;0.80;;
41643;SDS011;44236;48.098;11.582;2023-08-07T10:13:01;2.38;;;1.35;;
41643;SDS011;44236;48.098;11.582;2023-08-07T10:15:28;1.80;;;1.00;;
41643;SDS011;44236;48.098;11.582;2023-08-07T10:17:55;1.95;;;0.80;;
41643;SDS011;44236;48.098;11.582;2023-08-07T10:20:21;1.65;;;0.80;;
41643;SDS011;44236;48.098;11.582;2023-08-07T10:22:49;1.50;;;0.70;;
41643;SDS011;44236;48.098;11.582;2023-08-07T10:25:16;2.17;;;1.00;;
41643;SDS011;44236;48.098;11.582;2023-08-07T10:27:49;1.45;;;0.75;;
41643;SDS011;44236;48.098;11.582;2023-08-07T10:30:17;2.90;;;0.98;;
41643;SDS011;44236;48.098;11.582;2023-08-07T10:32:45;1.63;;;0.75;;
41643;SDS011;44236;48.098;11.582;2023-08-07T10:35:24;2.30;;;0.90;;
41643;SDS011;44236;48.098;11.582;2023-08-07T10:38:06;3.55;;;1.10;;
41643;SDS011;44236;48.098;11.582;2023-08-07T10:40:33;2.75;;;0.90;;
41643;SDS011;44236;48.098;11.582;2023-08-07T10:43:19;2.28;;;0.93;;
41643;SDS011;44236;48.098;11.582;2023-08-07T10:45:48;4.18;;;1.65;;
41643;SDS011;44236;48.098;11.582;2023-08-07T10:48:17;2.25;;;1.00;;
41643;SDS011;44236;48.098;11.582;2023-08-07T10:50:56;5.25;;;0.98;;
41643;SDS011;44236;48.098;11.582;2023-08-07T10:53:32;1.80;;;1.00;;
41643;SDS011;44236;48.098;11.582;2023-08-07T10:56:03;6.47;;;1.63;;
41643;SDS011;44236;48.098;11.582;2023-08-07T10:58:30;1.23;;;0.70;;
41643;SDS011;44236;48.098;11.582;2023-08-07T11:03:44;1.65;;;0.90;;
41643;SDS011;44236;48.098;11.582;2023-08-07T11:06:14;1.77;;;0.88;;
41643;SDS011;44236;48.098;11.582;2023-08-07T11:08:40;2.50;;;1.00;;
41643;SDS011;44236;48.098;11.582;2023-08-07T11:11:06;3.88;;;1.20;;
41643;SDS011;44236;48.098;11.582;2023-08-07T11:13:35;2.95;;;0.88;;
41643;SDS011;44236;48.098;11.582;2023-08-07T11:16:03;2.63;;;1.00;;
41643;SDS011;44236;48.098;11.582;2023-08-07T11:18:30;2.42;;;1.10;;
41643;SDS011;44236;48.098;11.582;2023-08-07T11:20:56;2.80;;;1.48;;
41643;SDS011;44236;48.098;11.582;2023-08-07T11:23:25;1.80;;;0.90;;
41643;SDS011;44236;48.098;11.582;2023-08-07T11:25:54;1.25;;;0.80;;
41643;SDS011;44236;48.098;11.582;2023-08-07T11:28:20;4.18;;;0.85;;
41643;SDS011;44236;48.098;11.582;2023-08-07T11:30:50;1.50;;;0.80;;
41643;SDS011;44236;48.098;11.582;2023-08-07T11:33:17;3.60;;;0.80;;
41643;SDS011;44236;48.098;11.582;2023-08-07T11:35:44;2.60;;;0.75;;
41643;SDS011;44236;48.098;11.582;2023-08-07T11:38:10;1.70;;;0.80;;
41643;SDS011;44236;48.098;11.582;2023-08-07T11:40:37;1.50;;;0.88;;
41643;SDS011;44236;48.098;11.582;2023-08-07T11:43:02;2.78;;;0.77;;
41643;SDS011;44236;48.098;11.582;2023-08-07T11:45:28;1.67;;;0.75;;
41643;SDS011;44236;48.098;11.582;2023-08-07T11:47:54;1.98;;;0.88;;
41643;SDS011;44236;48.098;11.582;2023-08-07T11:50:22;3.40;;;1.15;;
41643;SDS011;44236;48.098;11.582;2023-08-07T11:52:47;2.22;;;1.27;;
41643;SDS011;44236;48.098;11.582;2023-08-07T11:55:14;2.00;;;0.80;;
41643;SDS011;44236;48.098;11.582;2023-08-07T11:57:40;3.20;;;1.20;;
41643;SDS011;44236;48.098;11.582;2023-08-07T12:00:07;2.88;;;1.15;;
41643;SDS011;44236;48.098;11.582;2023-08-07T12:02:40;1.77;;;0.80;;
41643;SDS011;44236;48.098;11.582;2023-08-07T12:05:10;2.03;;;1.23;;
41643;SDS011;44236;48.098;11.582;2023-08-07T12:07:37;4.63;;;1.77;;
41643;SDS011;44236;48.098;11.582;2023-08-07T12:10:06;1.92;;;1.05;;
41643;SDS011;44236;48.098;11.582;2023-08-07T12:12:33;2.25;;;0.95;;
41643;SDS011;44236;48.098;11.582;2023-08-07T12:15:00;1.70;;;1.00;;
41643;SDS011;44236;48.098;11.582;2023-08-07T12:17:26;1.60;;;1.10;;
41643;SDS011;44236;48.098;11.582;2023-08-07T12:19:51;2.92;;;1.38;;
41643;SDS011;44236;48.098;11.582;2023-08-07T12:22:18;3.88;;;1.50;;
41643;SDS011;44236;48.098;11.582;2023-08-07T12:24:45;7.75;;;1.33;;
41643;SDS011;44236;48.098;11.582;2023-08-07T12:27:11;1.98;;;1.10;;
41643;SDS011;44236;48.098;11.582;2023-08-07T12:29:36;2.88;;;1.17;;
41643;SDS011;44236;48.098;11.582;2023-08-07T12:32:02;7.35;;;1.20;;
41643;SDS011;44236;48.098;11.582;2023-08-07T12:34:28;2.33;;;0.90;;
41643;SDS011;44236;48.098;11.582;2023-08-07T12:36:53;2.08;;;0.82;;
41643;SDS011;44236;48.098;11.582;2023-08-07T12:39:19;4.63;;;1.45;;
41643;SDS011;44236;48.098;11.582;2023-08-07T12:41:45;4.68;;;1.25;;
41643;SDS011;44236;48.098;11.582;2023-08-07T12:44:13;1.85;;;0.77;;
41643;SDS011;44236;48.098;11.582;2023-08-07T12:46:39;4.63;;;1.27;;
41643;SDS011;44236;48.098;11.582;2023-08-07T12:49:05;1.55;;;0.75;;
41643;SDS011;44236;48.098;11.582;2023-08-07T12:51:33;2.92;;;1.00;;
41643;SDS011;44236;48.098;11.582;2023-08-07T12:53:59;3.90;;;1.20;;
41643;SDS011;44236;48.098;11.582;2023-08-07T12:56:24;2.63;;;1.10;;
41643;SDS011;44236;48.098;11.582;2023-08-07T12:58:50;5.63;;;1.58;;
41643;SDS011;44236;48.098;11.582;2023-08-07T13:01:16;2.88;;;1.23;;
41643;SDS011;44236;48.098;11.582;2023-08-07T13:03:41;2.17;;;0.90;;
41643;SDS011;44236;48.098;11.582;2023-08-07T13:06:07;3.63;;;1.30;;
41643;SDS011;44236;48.098;11.582;2023-08-07T13:08:36;1.77;;;0.95;;
41643;SDS011;44236;48.098;11.582;2023-08-07T13:11:02;3.28;;;1.30;;
41643;SDS011;44236;48.098;11.582;2023-08-07T13:13:27;3.55;;;1.58;;
41643;SDS011;44236;48.098;11.582;2023-08-07T13:15:53;4.05;;;1.60;;
41643;SDS011;44236;48.098;11.582;2023-08-07T13:18:19;3.50;;;1.38;;
41643;SDS011;44236;48.098;11.582;2023-08-07T13:20:45;2.53;;;1.30;;
41643;SDS011;44236;48.098;11.582;2023-08-07T13:23:11;4.05;;;1.48;;
41643;SDS011;44236;48.098;11.582;2023-08-07T13:25:37;1.38;;;0.85;;
41643;SDS011;44236;48.098;11.582;2023-08-07T13:28:03;4.13;;;1.55;;
41643;SDS011;44236;48.098;11.582;2023-08-07T13:30:34;5.68;;;1.52;;
41643;SDS011;44236;48.098;11.582;2023-08-07T13:33:00;3.40;;;1.15;;
41643;SDS011;44236;48.098;11.582;2023-08-07T13:35:26;2.28;;;0.90;;
41643;SDS011;44236;48.098;11.582;2023-08-07T13:37:52;2.83;;;1.13;;
41643;SDS011;44236;48.098;11.582;2023-08-07T13:40:17;3.15;;;1.35;;
41643;SDS011;44236;48.098;11.582;2023-08-07T13:42:43;2.53;;;1.30;;
41643;SDS011;44236;48.098;11.582;2023-08-07T13:45:11;2.03;;;0.90;;
41643;SDS011;44236;48.098;11.582;2023-08-07T13:47:38;4.10;;;1.25;;
41643;SDS011;44236;48.098;11.582;2023-08-07T13:50:04;5.10;;;1.20;;
41643;SDS011;44236;48.098;11.582;2023-08-07T13:52:32;2.13;;;1.00;;
41643;SDS011;44236;48.098;11.582;2023-08-07T13:55:00;1.92;;;0.80;;
41643;SDS011;44236;48.098;11.582;2023-08-07T13:57:26;2.50;;;1.00;;
41643;SDS011;44236;48.098;11.582;2023-08-07T13:59:51;2.78;;;0.80;;
41643;SDS011;44236;48.098;11.582;2023-08-07T14:02:19;2.10;;;1.27;;
41643;SDS011;44236;48.098;11.582;2023-08-07T14:04:44;2.00;;;1.27;;
41643;SDS011;44236;48.098;11.582;2023-08-07T14:07:10;1.85;;;0.88;;
41643;SDS011;44236;48.098;11.582;2023-08-07T14:09:36;2.70;;;1.23;;
41643;SDS011;44236;48.098;11.582;2023-08-07T14:12:02;3.95;;;1.02;;
41643;SDS011;44236;48.098;11.582;2023-08-07T14:14:28;7.57;;;0.82;;
41643;SDS011;44236;48.098;11.582;2023-08-07T14:16:53;3.67;;;1.30;;
41643;SDS011;44236;48.098;11.582;2023-08-07T14:19:22;3.80;;;1.17;;
41643;SDS011;44236;48.098;11.582;2023-08-07T14:21:48;2.92;;;1.10;;
41643;SDS011;44236;48.098;11.582;2023-08-07T14:24:14;2.53;;;1.00;;
41643;SDS011;44236;48.098;11.582;2023-08-07T14:26:41;8.32;;;1.30;;
41643;SDS011;44236;48.098;11.582;2023-08-07T14:29:06;2.35;;;1.17;;
41643;SDS011;44236;48.098;11.582;2023-08-07T14:31:32;5.82;;;1.35;;
41643;SDS011;44236;48.098;11.582;2023-08-07T14:33:58;10.70;;;1.95;;
41643;SDS011;44236;48.098;11.582;2023-08-07T14:36:23;4.35;;;0.88;;
41643;SDS011;44236;48.098;11.582;2023-08-07T14:38:49;4.28;;;1.00;;
41643;SDS011;44236;48.098;11.582;2023-08-07T14:41:15;3.15;;;1.17;;
41643;SDS011;44236;48.098;11.582;2023-08-07T14:43:40;3.70;;;1.20;;
41643;SDS011;44236;48.098;11.582;2023-08-07T14:46:06;3.05;;;1.10;;
41643;SDS011;44236;48.098;11.582;2023-08-07T14:48:31;4.85;;;1.23;;
41643;SDS011;44236;48.098;11.582;2023-08-07T14:50:57;8.73;;;1.88;;
41643;SDS011;44236;48.098;11.582;2023-08-07T14:53:23;3.67;;;1.42;;
41643;SDS011;44236;48.098;11.582;2023-08-07T14:55:50;8.77;;;1.55;;
41643;SDS011;44236;48.098;11.582;2023-08-07T14:58:16;4.07;;;1.80;;
41643;SDS011;44236;48.098;11.582;2023-08-07T15:00:41;3.67;;;1.85;;
41643;SDS011;44236;48.098;11.582;2023-08-07T15:03:07;8.93;;;1.88;;
41643;SDS011;44236;48.098;11.582;2023-08-07T15:05:33;5.80;;;1.15;;
41643;SDS011;44236;48.098;11.582;2023-08-07T15:07:59;8.65;;;1.30;;
41643;SDS011;44236;48.098;11.582;2023-08-07T15:10:25;11.15;;;1.98;;
41643;SDS011;44236;48.098;11.582;2023-08-07T15:12:51;8.45;;;1.65;;
41643;SDS011;44236;48.098;11.582;2023-08-07T15:15:17;9.63;;;1.60;;
41643;SDS011;44236;48.098;11.582;2023-08-07T15:17:42;11.25;;;1.90;;
41643;SDS011;44236;48.098;11.582;2023-08-07T15:20:08;3.58;;;1.05;;
41643;SDS011;44236;48.098;11.582;2023-08-07T15:22:34;8.50;;;1.05;;
41643;SDS011;44236;48.098;11.582;2023-08-07T15:24:59;5.25;;;1.10;;
41643;SDS011;44236;48.098;11.582;2023-08-07T15:27:25;7.95;;;1.25;;
41643;SDS011;44236;48.098;11.582;2023-08-07T15:29:51;12.05;;;2.08;;
41643;SDS011;44236;48.098;11.582;2023-08-07T15:32:16;6.90;;;1.00;;
41643;SDS011;44236;48.098;11.582;2023-08-07T15:34:44;3.35;;;1.20;;
41643;SDS011;44236;48.098;11.582;2023-08-07T15:37:13;4.45;;;1.35;;
41643;SDS011;44236;48.098;11.582;2023-08-07T15:39:39;8.00;;;1.60;;
41643;SDS011;44236;48.098;11.582;2023-08-07T15:42:05;4.45;;;1.42;;
41643;SDS011;44236;48.098;11.582;2023-08-07T15:44:31;4.55;;;1.10;;
41643;SDS011;44236;48.098;11.582;2023-08-07T15:46:57;8.45;;;1.58;;
41643;SDS011;44236;48.098;11.582;2023-08-07T15:49:22;5.20;;;1.30;;
41643;SDS011;44236;48.098;11.582;2023-08-07T15:51:48;4.35;;;1.60;;
41643;SDS011;44236;48.098;11.582;2023-08-07T15:54:14;3.30;;;1.33;;
41643;SDS011;44236;48.098;11.582;2023-08-07T15:56:40;4.72;;;1.30;;
41643;SDS011;44236;48.098;11.582;2023-08-07T15:59:05;3.35;;;1.35;;
41643;SDS011;44236;48.098;11.582;2023-08-07T16:01:31;6.93;;;1.52;;
41643;SDS011;44236;48.098;11.582;2023-08-07T16:03:56;4.45;;;1.55;;
41643;SDS011;44236;48.098;11.582;2023-08-07T16:06:23;5.70;;;1.20;;
41643;SDS011;44236;48.098;11.582;2023-08-07T16:08:50;7.15;;;1.92;;
41643;SDS011;44236;48.098;11.582;2023-08-07T16:11:16;3.50;;;1.40;;
41643;SDS011;44236;48.098;11.582;2023-08-07T16:13:41;8.40;;;1.60;;
41643;SDS011;44236;48.098;11.582;2023-08-07T16:16:07;4.18;;;1.73;;
41643;SDS011;44236;48.098;11.582;2023-08-07T16:18:33;4.20;;;1.30;;
41643;SDS011;44236;48.098;11.582;2023-08-07T16:20:58;7.30;;;1.70;;
41643;SDS011;44236;48.098;11.582;2023-08-07T16:23:24;5.95;;;1.80;;
41643;SDS011;44236;48.098;11.582;2023-08-07T16:25:49;3.72;;;1.38;;
41643;SDS011;44236;48.098;11.582;2023-08-07T16:28:15;6.05;;;1.90;;
41643;SDS011;44236;48.098;11.582;2023-08-07T16:30:41;6.78;;;1.50;;
41643;SDS011;44236;48.098;11.582;2023-08-07T16:33:06;8.93;;;1.50;;
41643;SDS011;44236;48.098;11.582;2023-08-07T16:35:32;10.93;;;1.33;;
41643;SDS011;44236;48.098;11.582;2023-08-07T16:37:58;7.18;;;1.60;;
41643;SDS011;44236;48.098;11.582;2023-08-07T16:40:23;8.10;;;1.60;;
41643;SDS011;44236;48.098;11.582;2023-08-07T16:42:49;5.53;;;2.05;;
41643;SDS011;44236;48.098;11.582;2023-08-07T16:45:15;4.47;;;1.40;;
41643;SDS011;44236;48.098;11.582;2023-08-07T16:47:40;6.00;;;1.88;;
41643;SDS011;44236;48.098;11.582;2023-08-07T16:50:06;3.75;;;1.08;;
41643;SDS011;44236;48.098;11.582;2023-08-07T16:52:32;7.10;;;1.35;;
41643;SDS011;44236;48.098;11.582;2023-08-07T16:54:58;3.85;;;1.35;;
41643;SDS011;44236;48.098;11.582;2023-08-07T16:57:23;11.52;;;1.85;;
41643;SDS011;44236;48.098;11.582;2023-08-07T16:59:49;5.93;;;1.30;;
41643;SDS011;44236;48.098;11.582;2023-08-07T17:02:15;4.15;;;1.20;;
41643;SDS011;44236;48.098;11.582;2023-08-07T17:04:41;4.82;;;1.60;;
41643;SDS011;44236;48.098;11.582;2023-08-07T17:07:07;7.78;;;2.30;;
41643;SDS011;44236;48.098;11.582;2023-08-07T17:09:34;5.32;;;1.90;;
41643;SDS011;44236;48.098;11.582;2023-08-07T17:12:00;6.40;;;1.95;;
41643;SDS011;44236;48.098;11.582;2023-08-07T17:14:26;5.47;;;1.60;;
41643;SDS011;44236;48.098;11.582;2023-08-07T17:16:52;3.78;;;1.50;;
41643;SDS011;44236;48.098;11.582;2023-08-07T17:19:18;3.90;;;1.23;;
41643;SDS011;44236;48.098;11.582;2023-08-07T17:21:46;4.18;;;1.48;;
41643;SDS011;44236;48.098;11.582;2023-08-07T17:24:12;2.80;;;1.10;;
41643;SDS011;44236;48.098;11.582;2023-08-07T17:26:37;4.65;;;1.80;;
41643;SDS011;44236;48.098;11.582;2023-08-07T17:29:03;5.90;;;1.50;;
41643;SDS011;44236;48.098;11.582;2023-08-07T17:31:28;3.47;;;1.63;;
41643;SDS011;44236;48.098;11.582;2023-08-07T17:33:54;4.55;;;1.45;;
41643;SDS011;44236;48.098;11.582;2023-08-07T17:36:20;4.07;;;1.60;;
41643;SDS011;44236;48.098;11.582;2023-08-07T17:38:47;3.78;;;1.65;;
41643;SDS011;44236;48.098;11.582;2023-08-07T17:41:13;3.10;;;1.30;;
41643;SDS011;44236;48.098;11.582;2023-08-07T17:43:38;4.22;;;1.33;;
41643;SDS011;44236;48.098;11.582;2023-08-07T17:46:04;3.47;;;1.20;;
41643;SDS011;44236;48.098;11.582;2023-08-07T17:48:30;3.33;;;1.45;;
41643;SDS011;44236;48.098;11.582;2023-08-07T17:50:55;5.25;;;1.40;;
41643;SDS011;44236;48.098;11.582;2023-08-07T17:53:21;4.93;;;1.58;;
41643;SDS011;44236;48.098;11.582;2023-08-07T17:55:47;2.38;;;1.27;;
41643;SDS011;44236;48.098;11.582;2023-08-07T17:58:12;4.45;;;1.30;;
41643;SDS011;44236;48.098;11.582;2023-08-07T18:00:38;5.05;;;1.40;;
41643;SDS011;44236;48.098;11.582;2023-08-07T18:03:04;3.70;;;1.58;;
41643;SDS011;44236;48.098;11.582;2023-08-07T18:05:31;3.15;;;1.63;;
41643;SDS011;44236;48.098;11.582;2023-08-07T18:07:57;3.30;;;1.27;;
41643;SDS011;44236;48.098;11.582;2023-08-07T18:10:23;3.38;;;1.40;;
41643;SDS011;44236;48.098;11.582;2023-08-07T18:12:48;3.08;;;1.27;;
41643;SDS011;44236;48.098;11.582;2023-08-07T18:15:14;7.32;;;1.45;;
41643;SDS011;44236;48.098;11.582;2023-08-07T18:17:40;4.28;;;1.65;;
41643;SDS011;44236;48.098;11.582;2023-08-07T18:20:05;5.82;;;1.92;;
41643;SDS011;44236;48.098;11.582;2023-08-07T18:22:32;2.08;;;1.27;;
41643;SDS011;44236;48.098;11.582;2023-08-07T18:24:58;3.78;;;1.70;;
41643;SDS011;44236;48.098;11.582;2023-08-07T18:27:24;2.65;;;1.25;;
41643;SDS011;44236;48.098;11.582;2023-08-07T18:29:50;2.67;;;1.40;;
41643;SDS011;44236;48.098;11.582;2023-08-07T18:32:15;3.83;;;1.40;;
41643;SDS011;44236;48.098;11.582;2023-08-07T18:34:41;4.47;;;1.15;;
41643;SDS011;44236;48.098;11.582;2023-08-07T18:37:07;3.25;;;1.10;;
41643;SDS011;44236;48.098;11.582;2023-08-07T18:39:32;4.45;;;1.23;;
41643;SDS011;44236;48.098;11.582;2023-08-07T18:41:58;2.90;;;1.65;;
41643;SDS011;44236;48.098;11.582;2023-08-07T18:44:23;1.23;;;0.90;;
41643;SDS011;44236;48.098;11.582;2023-08-07T18:46:49;2.83;;;1.00;;
41643;SDS011;44236;48.098;11.582;2023-08-07T18:49:15;2.65;;;1.27;;
41643;SDS011;44236;48.098;11.582;2023-08-07T18:51:40;2.35;;;1.20;;
41643;SDS011;44236;48.098;11.582;2023-08-07T18:54:09;1.77;;;1.00;;
41643;SDS011;44236;48.098;11.582;2023-08-07T18:56:34;6.78;;;1.63;;
41643;SDS011;44236;48.098;11.582;2023-08-07T18:59:00;5.95;;;1.27;;
41643;SDS011;44236;48.098;11.582;2023-08-07T19:01:28;2.28;;;1.10;;
41643;SDS011;44236;48.098;11.582;2023-08-07T19:03:54;2.38;;;1.15;;
41643;SDS011;44236;48.098;11.582;2023-08-07T19:06:20;2.15;;;1.17;;
41643;SDS011;44236;48.098;11.582;2023-08-07T19:08:46;3.05;;;1.15;;
41643;SDS011;44236;48.098;11.582;2023-08-07T19:11:11;1.90;;;1.10;;
41643;SDS011;44236;48.098;11.582;2023-08-07T19:13:37;5.45;;;1.13;;
41643;SDS011;44236;48.098;11.582;2023-08-07T19:16:03;3.97;;;0.90;;
41643;SDS011;44236;48.098;11.582;2023-08-07T19:18:28;4.63;;;1.30;;
41643;SDS011;44236;48.098;11.582;2023-08-07T19:20:54;5.07;;;1.33;;
41643;SDS011;44236;48.098;11.582;2023-08-07T19:23:25;2.28;;;1.02;;
41643;SDS011;44236;48.098;11.582;2023-08-07T19:25:51;2.70;;;1.10;;
41643;SDS011;44236;48.098;11.582;2023-08-07T19:28:17;3.63;;;1.08;;
41643;SDS011;44236;48.098;11.582;2023-08-07T19:30:43;2.65;;;1.30;;